Black Eagle — WDJJ — position and weather

sailwx.info

Track history (hours):
 
Tides and Currents Weather Stations Pressure Air Temp Water Temp Dewpoint Dewpoint Depression Visibility Wind Speed Wind Dir Waves Ship Positions

Black Eagle

Owner: Sealift Inc., Oyster Bay, NY. More information available from US FCC via Universal Licensing System and Coast Guard Vessel Documentation Center.

Last reported at 2016-May-20 03:10 UTC. Time now 2016-May-25 16:49 UTC.
Position S 34°05' E 017°44'.

Length 190 m; draft 9.3 m.

Type: Cargo ship. MMSI: 369542000.

Date/timePositionNaut miles runAvg speedWind from/ knotsBaromVisibWave heightAir tempDewpointWater temp
2016-May-20 03:10S 34°05' E 017°44'1615.6
2016-May-20 02:08S 34°15' E 017°59'915.8
2016-May-20 01:33S 34°21' E 018°07'68813.8
2016-May-17 23:34S 30°24' E 030°52'1515.0
2016-May-17 22:34S 30°11' E 030°60'1514.7
2016-May-17 21:33S 29°57' E 031°06'6 5.9
2016-May-17 20:33S 29°52' E 031°02'0 0.2
2016-May-17 19:32S 29°52' E 031°02'0 0.0
2016-May-17 18:32S 29°52' E 031°02'0 0.0
2016-May-17 17:32S 29°52' E 031°02'0 0.0
2016-May-17 16:32S 29°52' E 031°02'0 0.0
2016-May-17 15:32S 29°52' E 031°02'0 0.0
2016-May-17 14:32S 29°52' E 031°02'0 0.0
2016-May-17 13:32S 29°52' E 031°02'0 0.0
2016-May-17 12:32S 29°52' E 031°02'0 0.0
2016-May-17 11:32S 29°52' E 031°02'2 1.7
2016-May-17 10:33S 29°52' E 031°04'4 4.0
2016-May-17 09:33S 29°49' E 031°07'1 1.1
2016-May-17 08:33S 29°48' E 031°08'2 1.8
2016-May-17 07:34S 29°49' E 031°10'1 1.2
2016-May-17 06:34S 29°50' E 031°09'2 2.0
2016-May-17 05:33S 29°48' E 031°11'9 8.6
2016-May-17 04:33S 29°44' E 031°19'1212.2
2016-May-17 03:34S 29°37' E 031°31'1312.6
2016-May-17 02:33S 29°31' E 031°44'  
Track history (hours):
 
Tides and Currents Weather Stations Pressure Air Temp Water Temp Dewpoint Dewpoint Depression Visibility Wind Speed Wind Dir Waves Ship Positions

Black Eagle

Owner: Sealift Inc., Oyster Bay, NY. More information available from US FCC via Universal Licensing System and Coast Guard Vessel Documentation Center.

Last reported at 2016-May-20 03:10 UTC. Time now 2016-May-25 16:49 UTC.
Position S 34°05' E 017°44'.

Length 190 m; draft 9.3 m.

Type: Cargo ship. MMSI: 369542000.

Date/timePositionNaut miles runAvg speedWind from/ knotsBaromVisibWave heightAir tempDewpointWater temp
2016-May-20 03:10S 34°05' E 017°44'1615.6
2016-May-20 02:08S 34°15' E 017°59'915.8
2016-May-20 01:33S 34°21' E 018°07'68813.8
2016-May-17 23:34S 30°24' E 030°52'1515.0
2016-May-17 22:34S 30°11' E 030°60'1514.7
2016-May-17 21:33S 29°57' E 031°06'6 5.9
2016-May-17 20:33S 29°52' E 031°02'0 0.2
2016-May-17 19:32S 29°52' E 031°02'0 0.0
2016-May-17 18:32S 29°52' E 031°02'0 0.0
2016-May-17 17:32S 29°52' E 031°02'0 0.0
2016-May-17 16:32S 29°52' E 031°02'0 0.0
2016-May-17 15:32S 29°52' E 031°02'0 0.0
2016-May-17 14:32S 29°52' E 031°02'0 0.0
2016-May-17 13:32S 29°52' E 031°02'0 0.0
2016-May-17 12:32S 29°52' E 031°02'0 0.0
2016-May-17 11:32S 29°52' E 031°02'2 1.7
2016-May-17 10:33S 29°52' E 031°04'4 4.0
2016-May-17 09:33S 29°49' E 031°07'1 1.1
2016-May-17 08:33S 29°48' E 031°08'2 1.8
2016-May-17 07:34S 29°49' E 031°10'1 1.2
2016-May-17 06:34S 29°50' E 031°09'2 2.0
2016-May-17 05:33S 29°48' E 031°11'9 8.6
2016-May-17 04:33S 29°44' E 031°19'1212.2
2016-May-17 03:34S 29°37' E 031°31'1312.6
2016-May-17 02:33S 29°31' E 031°44'  

Dump ship's entire track history